Time;durP1;ratioP1;P1;durP2;ratioP2;P2;SDS_P1;SDS_P2;PMS_P1;PMS_P2;Temp;Humidity;BMP_temperature;BMP_pressure;BME280_temperature;BME280_humidity;BME280_pressure;Samples;Min_cycle;Max_cycle;Signal;HPM_P1;HPM_P2
2022/02/17 00:00:55;;;;;;;0.00;0.00;;;11.50;94.30;;;;;;5058262;28;20036;-80
2022/02/17 00:03:21;;;;;;;0.10;0.10;;;11.50;94.50;;;;;;5054804;28;20026;-81
2022/02/17 00:05:47;;;;;;;0.10;0.10;;;11.50;94.80;;;;;;5053819;28;20041;-82
2022/02/17 00:08:13;;;;;;;0.25;0.10;;;11.40;95.00;;;;;;5055577;28;20090;-80
2022/02/17 00:10:39;;;;;;;0.08;0.08;;;11.30;95.50;;;;;;5055419;28;20002;-81
2022/02/17 00:13:05;;;;;;;0.10;0.00;;;11.20;95.90;;;;;;5055257;28;20006;-80
2022/02/17 00:15:32;;;;;;;0.00;0.00;;;11.20;96.20;;;;;;5055577;28;20087;-80
2022/02/17 00:17:59;;;;;;;1.90;0.30;;;11.10;96.80;;;;;;5056221;28;20039;-80
2022/02/17 00:20:25;;;;;;;0.00;0.00;;;11.10;97.30;;;;;;5054249;28;20077;-80
2022/02/17 00:22:52;;;;;;;0.73;0.10;;;11.00;97.80;;;;;;5060416;28;20111;-80
2022/02/17 00:25:18;;;;;;;0.55;0.10;;;10.90;98.40;;;;;;5074041;28;20051;-80
2022/02/17 00:27:45;;;;;;;3.00;0.10;;;10.90;98.80;;;;;;5073806;28;20131;-81
2022/02/17 00:30:12;;;;;;;0.10;0.10;;;10.80;99.10;;;;;;5073207;28;20078;-81
2022/02/17 00:32:38;;;;;;;0.63;0.00;;;10.90;99.00;;;;;;5072120;28;20039;-80
2022/02/17 00:35:06;;;;;;;0.32;0.10;;;10.80;99.00;;;;;;5073158;28;20036;-80
2022/02/17 00:37:32;;;;;;;0.10;0.10;;;10.90;99.20;;;;;;5073939;28;20017;-79
2022/02/17 00:39:58;;;;;;;0.10;0.00;;;10.90;99.10;;;;;;5072627;28;20028;-79
2022/02/17 00:42:24;;;;;;;0.08;0.08;;;10.90;99.00;;;;;;5073114;28;20025;-79
2022/02/17 00:44:50;;;;;;;0.00;0.00;;;10.90;98.60;;;;;;5073828;28;20037;-81
2022/02/17 00:47:17;;;;;;;0.25;0.05;;;11.00;98.50;;;;;;5074223;28;20036;-79
2022/02/17 00:49:43;;;;;;;0.03;0.03;;;11.00;98.30;;;;;;5073485;28;20051;-81
2022/02/17 00:52:09;;;;;;;0.10;0.00;;;11.10;98.20;;;;;;5073558;28;20025;-81
2022/02/17 00:54:35;;;;;;;0.00;0.00;;;11.10;97.90;;;;;;5073768;28;20025;-80
2022/02/17 00:57:01;;;;;;;0.10;0.10;;;11.10;97.80;;;;;;5073868;28;20025;-81
2022/02/17 00:59:28;;;;;;;0.00;0.00;;;11.20;97.60;;;;;;5074127;28;20028;-81
2022/02/17 01:01:54;;;;;;;0.00;0.00;;;11.30;97.20;;;;;;5074074;28;20013;-80
2022/02/17 01:04:20;;;;;;;0.38;0.00;;;11.30;97.00;;;;;;5073484;28;20029;-80
2022/02/17 01:06:46;;;;;;;0.00;0.00;;;11.40;96.70;;;;;;5072558;28;20317;-80
2022/02/17 01:09:13;;;;;;;0.00;0.00;;;11.50;96.50;;;;;;5071749;28;20025;-80
2022/02/17 01:11:39;;;;;;;0.10;0.10;;;11.50;96.30;;;;;;5071991;28;20100;-78
2022/02/17 01:14:06;;;;;;;0.08;0.08;;;11.60;95.80;;;;;;5073209;28;20021;-79
2022/02/17 01:16:36;;;;;;;0.00;0.00;;;11.60;95.50;;;;;;5073561;28;20005;-81
2022/02/17 01:19:02;;;;;;;0.00;0.00;;;11.70;95.40;;;;;;5072582;28;20085;-81
2022/02/17 01:21:28;;;;;;;1.95;0.00;;;11.70;95.30;;;;;;5073470;28;20048;-80
2022/02/17 01:23:54;;;;;;;0.25;0.10;;;11.70;95.30;;;;;;5073558;28;20054;-80
2022/02/17 01:26:19;;;;;;;0.38;0.08;;;11.70;95.30;;;;;;5072312;28;20029;-80
2022/02/17 01:28:45;;;;;;;0.10;0.00;;;11.70;95.40;;;;;;5072671;28;20055;-80
2022/02/17 01:31:12;;;;;;;0.35;0.10;;;11.70;95.20;;;;;;5073286;28;20033;-81
2022/02/17 01:33:37;;;;;;;0.00;0.00;;;11.70;95.00;;;;;;5073065;28;20063;-80
2022/02/17 01:36:06;;;;;;;0.00;0.00;;;11.70;95.00;;;;;;5072361;28;20437;-79
2022/02/17 01:38:40;;;;;;;0.20;0.15;;;11.70;94.90;;;;;;5072942;28;20032;-81
2022/02/17 01:41:08;;;;;;;0.00;0.00;;;11.80;94.90;;;;;;5073430;28;20051;-81
2022/02/17 01:43:35;;;;;;;0.00;0.00;;;11.80;94.70;;;;;;5070913;28;20036;-80
2022/02/17 01:46:01;;;;;;;0.00;0.00;;;11.80;94.60;;;;;;5072999;28;20100;-80
2022/02/17 01:48:27;;;;;;;2.10;0.10;;;11.80;94.60;;;;;;5073402;28;20092;-81
2022/02/17 01:50:54;;;;;;;1.25;0.10;;;11.80;94.60;;;;;;5072417;28;20025;-80
2022/02/17 01:53:20;;;;;;;0.00;0.00;;;11.70;94.70;;;;;;5071885;28;20123;-78
2022/02/17 01:55:49;;;;;;;0.00;0.00;;;11.80;94.50;;;;;;5071982;28;20020;-78
2022/02/17 01:58:15;;;;;;;0.25;0.10;;;11.80;94.40;;;;;;5075556;28;20036;-80
2022/02/17 02:00:42;;;;;;;0.00;0.00;;;11.90;94.10;;;;;;5075719;28;20032;-80
2022/02/17 02:03:09;;;;;;;0.73;0.08;;;11.90;93.80;;;;;;5072541;28;20028;-79
2022/02/17 02:05:35;;;;;;;0.00;0.00;;;12.00;93.60;;;;;;5071507;28;20560;-80
2022/02/17 02:08:02;;;;;;;1.13;0.08;;;12.00;93.40;;;;;;5069224;28;20167;-81
2022/02/17 02:10:28;;;;;;;0.80;0.10;;;12.00;93.40;;;;;;5070891;28;20031;-80
2022/02/17 02:12:54;;;;;;;0.10;0.00;;;12.00;93.00;;;;;;5071187;28;20025;-79
2022/02/17 02:15:19;;;;;;;0.03;0.00;;;12.10;92.70;;;;;;5070706;28;20100;-81
2022/02/17 02:17:45;;;;;;;0.00;0.00;;;12.10;92.30;;;;;;5071800;28;20084;-81
2022/02/17 02:20:18;;;;;;;0.25;0.00;;;12.20;91.80;;;;;;5071777;28;20036;-81
2022/02/17 02:22:46;;;;;;;0.10;0.10;;;12.20;91.60;;;;;;5072367;28;20473;-81
2022/02/17 02:25:12;;;;;;;0.03;0.00;;;12.20;91.40;;;;;;5055379;28;20025;-80
2022/02/17 02:27:38;;;;;;;1.17;0.50;;;12.30;91.30;;;;;;5073262;28;20029;-80
2022/02/17 02:30:06;;;;;;;0.00;0.00;;;12.30;91.20;;;;;;5073227;28;20039;-81
2022/02/17 02:32:32;;;;;;;0.00;0.00;;;12.30;91.00;;;;;;5072401;28;20032;-81
2022/02/17 02:34:58;;;;;;;0.00;0.00;;;12.30;90.90;;;;;;5084818;22;20077;-81
2022/02/17 02:37:24;;;;;;;0.00;0.00;;;12.30;90.60;;;;;;5030391;28;20042;-80
2022/02/17 02:39:50;;;;;;;0.10;0.10;;;12.30;90.20;;;;;;5043268;28;20036;-81
2022/02/17 02:42:16;;;;;;;0.20;0.00;;;12.30;90.20;;;;;;5027124;28;20091;-81
2022/02/17 02:44:43;;;;;;;0.10;0.00;;;12.40;90.00;;;;;;5041396;28;20062;-80
2022/02/17 02:47:09;;;;;;;0.10;0.10;;;12.40;89.20;;;;;;5037952;28;20030;-81
2022/02/17 02:49:37;;;;;;;0.00;0.00;;;12.50;88.80;;;;;;5022735;28;20025;-81
2022/02/17 02:52:03;;;;;;;0.00;0.00;;;12.50;88.60;;;;;;5016291;28;20022;-80
2022/02/17 02:54:29;;;;;;;0.10;0.00;;;12.50;88.50;;;;;;5037855;28;20037;-81
2022/02/17 02:56:55;;;;;;;0.00;0.00;;;12.50;88.30;;;;;;5058462;28;20028;-84
2022/02/17 02:59:21;;;;;;;0.00;0.00;;;12.50;87.80;;;;;;5059247;28;20025;-82
2022/02/17 03:01:47;;;;;;;0.10;0.10;;;12.50;87.60;;;;;;5059500;28;20523;-81
2022/02/17 03:04:12;;;;;;;0.00;0.00;;;12.50;87.70;;;;;;5060505;28;20033;-82
2022/02/17 03:06:39;;;;;;;0.00;0.00;;;12.50;87.40;;;;;;5063253;28;20033;-82
2022/02/17 03:09:05;;;;;;;3.40;0.10;;;12.40;87.30;;;;;;5059763;28;20044;-82
2022/02/17 03:11:32;;;;;;;0.00;0.00;;;12.50;86.80;;;;;;5065774;28;20028;-82
2022/02/17 03:13:58;;;;;;;0.00;0.00;;;12.50;86.50;;;;;;5058419;28;20021;-82
2022/02/17 03:16:25;;;;;;;0.00;0.00;;;12.40;86.70;;;;;;5059296;28;20028;-82
2022/02/17 03:18:51;;;;;;;0.00;0.00;;;12.50;86.60;;;;;;5059180;28;20248;-82
2022/02/17 03:21:17;;;;;;;0.68;0.00;;;12.40;87.10;;;;;;5058808;28;20036;-81
2022/02/17 03:23:43;;;;;;;0.00;0.00;;;12.40;87.10;;;;;;5054015;28;20042;-81
2022/02/17 03:26:08;;;;;;;2.63;0.03;;;12.40;86.20;;;;;;5054834;28;20409;-81
2022/02/17 03:28:34;;;;;;;0.00;0.00;;;12.50;85.60;;;;;;5058470;28;20093;-82
2022/02/17 03:31:00;;;;;;;0.00;0.00;;;12.50;85.30;;;;;;5058595;28;20096;-84
2022/02/17 03:33:25;;;;;;;1.55;0.00;;;12.50;85.30;;;;;;5057899;28;20032;-81
2022/02/17 03:35:51;;;;;;;1.15;0.10;;;12.50;85.50;;;;;;5059335;28;20035;-82
2022/02/17 03:38:17;;;;;;;0.15;0.10;;;12.40;85.70;;;;;;5059452;28;20120;-82
2022/02/17 03:40:43;;;;;;;0.00;0.00;;;12.40;85.70;;;;;;5057375;28;20017;-81
2022/02/17 03:43:08;;;;;;;0.32;0.00;;;12.40;85.70;;;;;;5057638;28;20214;-82
2022/02/17 03:45:34;;;;;;;0.00;0.00;;;12.30;86.00;;;;;;5057370;28;20051;-82
2022/02/17 03:48:00;;;;;;;0.00;0.00;;;12.20;86.30;;;;;;5057380;28;20029;-84
2022/02/17 03:50:26;;;;;;;0.00;0.00;;;12.10;86.60;;;;;;5057642;28;20040;-81
2022/02/17 03:52:51;;;;;;;0.17;0.00;;;12.00;87.10;;;;;;5057457;28;20086;-82
2022/02/17 03:55:17;;;;;;;0.00;0.00;;;12.00;87.40;;;;;;5055536;28;20060;-81
2022/02/17 03:57:44;;;;;;;0.30;0.03;;;11.90;87.70;;;;;;5057846;28;20124;-82
2022/02/17 04:00:11;;;;;;;0.10;0.00;;;11.80;87.80;;;;;;5058050;28;20024;-82
2022/02/17 04:02:37;;;;;;;0.08;0.08;;;11.80;88.00;;;;;;5056366;28;20021;-83
2022/02/17 04:05:03;;;;;;;0.00;0.00;;;11.90;88.40;;;;;;5057634;28;20079;-82
2022/02/17 04:07:29;;;;;;;0.10;0.00;;;11.90;87.30;;;;;;5054830;28;20037;-82
2022/02/17 04:09:56;;;;;;;0.00;0.00;;;11.90;87.20;;;;;;5057547;28;20032;-82
2022/02/17 04:12:29;;;;;;;0.00;0.00;;;11.90;87.10;;;;;;5056414;28;20031;-82
2022/02/17 04:14:55;;;;;;;0.47;0.30;;;11.90;87.30;;;;;;5058557;28;20017;-83
2022/02/17 04:17:20;;;;;;;0.05;0.00;;;12.00;87.20;;;;;;5055683;28;20403;-80
2022/02/17 04:19:46;;;;;;;0.00;0.00;;;12.00;87.00;;;;;;5057192;28;20022;-81
2022/02/17 04:22:12;;;;;;;0.52;0.00;;;12.00;86.90;;;;;;5057718;28;20071;-81
2022/02/17 04:24:40;;;;;;;0.00;0.00;;;12.10;86.60;;;;;;5056522;28;20021;-80
2022/02/17 04:27:06;;;;;;;0.10;0.00;;;12.00;87.00;;;;;;5055672;28;20039;-81
2022/02/17 04:29:32;;;;;;;0.10;0.00;;;11.90;87.50;;;;;;5056879;28;20029;-81
2022/02/17 04:31:57;;;;;;;0.00;0.00;;;11.90;87.80;;;;;;5057271;28;20053;-81
2022/02/17 04:34:23;;;;;;;1.02;0.10;;;11.80;88.00;;;;;;5057341;28;20129;-83
2022/02/17 04:36:49;;;;;;;0.05;0.00;;;11.80;88.40;;;;;;5057112;28;20420;-81
2022/02/17 04:39:14;;;;;;;0.00;0.00;;;11.80;88.50;;;;;;5057293;28;20082;-81
2022/02/17 04:44:24;;;;;;;0.30;0.00;;;11.70;88.90;;;;;;5059890;28;20086;-82
2022/02/17 04:46:50;;;;;;;0.00;0.00;;;11.70;89.50;;;;;;5059564;28;20081;-83
2022/02/17 04:49:16;;;;;;;0.00;0.00;;;11.70;89.60;;;;;;5039613;28;20036;-84
2022/02/17 04:51:42;;;;;;;0.00;0.00;;;11.70;89.20;;;;;;5041553;28;20431;-83
2022/02/17 04:54:08;;;;;;;0.00;0.00;;;11.80;89.00;;;;;;5042931;28;20121;-84
2022/02/17 04:56:34;;;;;;;0.20;0.00;;;11.80;89.10;;;;;;5042903;28;20049;-84
2022/02/17 04:59:00;;;;;;;0.00;0.00;;;11.80;89.00;;;;;;5041831;28;20056;-84
2022/02/17 05:01:26;;;;;;;0.47;0.30;;;11.80;88.90;;;;;;5040792;28;20026;-84
2022/02/17 05:03:53;;;;;;;0.10;0.10;;;11.70;89.20;;;;;;5043004;28;20034;-82
2022/02/17 05:06:19;;;;;;;0.20;0.00;;;11.70;89.90;;;;;;5042897;28;20029;-83
2022/02/17 05:08:45;;;;;;;0.00;0.00;;;11.70;90.00;;;;;;5041284;28;20037;-82
2022/02/17 05:11:10;;;;;;;0.00;0.00;;;11.80;89.90;;;;;;5046645;28;20026;-84
2022/02/17 05:13:36;;;;;;;0.08;0.00;;;11.80;90.00;;;;;;5048639;28;20030;-83
2022/02/17 05:16:02;;;;;;;0.00;0.00;;;11.90;90.00;;;;;;5040992;28;20037;-82
2022/02/17 05:18:28;;;;;;;0.00;0.00;;;11.90;90.00;;;;;;5042658;28;20032;-82
2022/02/17 05:20:54;;;;;;;0.00;0.00;;;11.80;90.10;;;;;;5044522;28;20029;-82
2022/02/17 05:23:19;;;;;;;1.05;0.00;;;11.80;90.30;;;;;;5044305;28;20021;-80
2022/02/17 05:25:49;;;;;;;0.00;0.00;;;11.80;90.40;;;;;;5058852;28;20040;-81
2022/02/17 05:28:16;;;;;;;1.52;0.08;;;11.80;90.40;;;;;;5061348;28;20029;-81
2022/02/17 05:30:43;;;;;;;0.50;0.20;;;11.80;90.40;;;;;;5060848;28;20595;-83
2022/02/17 05:33:13;;;;;;;0.00;0.00;;;11.70;90.60;;;;;;5060858;28;20098;-80
2022/02/17 05:35:39;;;;;;;0.00;0.00;;;11.70;90.90;;;;;;5059589;28;20033;-83
2022/02/17 05:38:05;;;;;;;0.00;0.00;;;11.60;91.00;;;;;;5058204;28;20033;-84
2022/02/17 05:40:31;;;;;;;2.05;0.10;;;11.50;91.20;;;;;;5058822;28;20024;-83
2022/02/17 05:42:57;;;;;;;0.20;0.10;;;11.50;91.40;;;;;;5059635;28;20086;-83
2022/02/17 05:45:23;;;;;;;0.35;0.00;;;11.50;91.60;;;;;;5057168;28;20021;-82
2022/02/17 05:47:49;;;;;;;0.45;0.10;;;11.50;91.60;;;;;;5057891;28;20021;-83
2022/02/17 05:50:15;;;;;;;0.10;0.10;;;11.60;91.60;;;;;;5056951;28;20096;-85
2022/02/17 05:52:41;;;;;;;0.00;0.00;;;11.50;91.60;;;;;;5062600;28;20470;-82
2022/02/17 05:55:07;;;;;;;0.00;0.00;;;11.50;91.80;;;;;;5056545;28;20051;-80
2022/02/17 05:57:33;;;;;;;0.65;0.10;;;11.60;91.70;;;;;;5057720;28;20100;-82
2022/02/17 05:59:59;;;;;;;1.02;0.20;;;11.60;91.70;;;;;;5056864;28;20477;-81
2022/02/17 06:02:27;;;;;;;1.83;0.10;;;11.60;91.90;;;;;;5064142;28;20025;-81
2022/02/17 06:04:54;;;;;;;0.30;0.30;;;11.60;92.00;;;;;;5058051;28;20037;-81
2022/02/17 06:07:20;;;;;;;2.58;0.20;;;11.60;92.00;;;;;;5059983;28;20025;-81
2022/02/17 06:09:48;;;;;;;0.10;0.10;;;11.50;92.20;;;;;;5059380;28;20108;-81
2022/02/17 06:12:13;;;;;;;0.22;0.10;;;11.50;92.40;;;;;;5062905;28;20450;-81
2022/02/17 06:14:39;;;;;;;0.20;0.15;;;11.50;92.50;;;;;;5057260;28;20029;-80
2022/02/17 06:17:05;;;;;;;0.25;0.25;;;11.50;92.40;;;;;;5055325;28;20028;-80
2022/02/17 06:19:30;;;;;;;0.90;0.20;;;11.50;92.50;;;;;;5055575;28;20028;-80
2022/02/17 06:21:56;;;;;;;0.35;0.00;;;11.50;92.50;;;;;;5057550;28;20021;-81
2022/02/17 06:24:22;;;;;;;0.10;0.10;;;11.50;92.50;;;;;;5053126;28;20021;-82
2022/02/17 06:26:48;;;;;;;0.10;0.10;;;11.50;92.60;;;;;;5055397;28;20083;-83
2022/02/17 06:29:14;;;;;;;0.00;0.00;;;11.50;92.60;;;;;;5055620;28;20021;-81
2022/02/17 06:31:39;;;;;;;0.10;0.10;;;11.50;92.40;;;;;;5054510;28;20477;-81
2022/02/17 06:34:05;;;;;;;3.30;0.00;;;11.50;92.50;;;;;;5055664;28;20064;-82
2022/02/17 06:36:31;;;;;;;2.03;0.20;;;11.50;92.60;;;;;;5056221;28;20025;-81
2022/02/17 06:38:57;;;;;;;2.03;0.10;;;11.50;92.60;;;;;;5056772;28;20088;-81
2022/02/17 06:41:23;;;;;;;2.00;0.10;;;11.40;92.90;;;;;;5046962;28;20088;-82
2022/02/17 06:43:50;;;;;;;0.00;0.00;;;11.40;92.80;;;;;;5056896;28;20428;-82
2022/02/17 06:46:16;;;;;;;0.20;0.20;;;11.50;92.80;;;;;;5034922;28;20033;-82
2022/02/17 06:48:42;;;;;;;0.08;0.08;;;11.50;92.70;;;;;;5036835;28;20017;-80
2022/02/17 06:51:08;;;;;;;0.10;0.10;;;11.50;92.70;;;;;;5035549;28;20025;-81
2022/02/17 06:53:34;;;;;;;0.35;0.17;;;11.50;92.90;;;;;;5035485;28;20037;-83
2022/02/17 06:56:00;;;;;;;0.13;0.08;;;11.50;92.80;;;;;;5070162;28;20112;-83
2022/02/17 06:58:25;;;;;;;1.00;0.10;;;11.50;92.60;;;;;;5058017;28;20409;-81
2022/02/17 07:00:52;;;;;;;0.10;0.10;;;11.50;92.70;;;;;;5056893;28;20096;-82
2022/02/17 07:03:18;;;;;;;1.13;0.20;;;11.50;92.60;;;;;;5055300;28;20131;-80
2022/02/17 07:05:44;;;;;;;1.48;0.00;;;11.50;92.70;;;;;;5047058;28;20088;-83
2022/02/17 07:08:10;;;;;;;0.75;0.15;;;11.50;92.60;;;;;;5045049;28;20453;-83
2022/02/17 07:13:23;;;;;;;0.00;0.00;;;11.70;92.30;;;;;;5057619;28;20519;-81
2022/02/17 07:15:49;;;;;;;0.10;0.10;;;11.70;92.20;;;;;;5056350;28;20044;-82
2022/02/17 07:18:17;;;;;;;0.98;0.10;;;11.80;92.20;;;;;;5056050;28;20343;-82
2022/02/17 07:20:44;;;;;;;1.05;0.00;;;11.90;92.10;;;;;;5055412;28;20021;-81
2022/02/17 07:23:14;;;;;;;0.60;0.30;;;12.10;91.90;;;;;;5056265;28;20025;-85
2022/02/17 07:25:41;;;;;;;0.25;0.17;;;12.30;91.70;;;;;;5027212;28;20025;-82
2022/02/17 07:28:07;;;;;;;2.25;0.15;;;12.30;91.50;;;;;;5056420;28;20029;-82
2022/02/17 07:30:44;;;;;;;0.22;0.05;;;12.40;91.60;;;;;;5056043;28;20033;-83
2022/02/17 07:33:13;;;;;;;5.97;0.20;;;12.30;91.50;;;;;;5056041;28;20393;-82
2022/02/17 07:35:39;;;;;;;1.55;0.20;;;12.40;91.50;;;;;;5055551;28;20033;-82
2022/02/17 07:38:07;;;;;;;0.38;0.20;;;12.50;91.20;;;;;;5053701;28;20025;-81
2022/02/17 07:40:33;;;;;;;1.45;0.10;;;12.60;90.90;;;;;;5055420;28;20090;-80
2022/02/17 07:42:59;;;;;;;1.13;0.10;;;12.70;90.80;;;;;;5059717;28;20069;-80
2022/02/17 07:45:24;;;;;;;0.60;0.17;;;12.70;90.90;;;;;;5059792;28;20056;-80
2022/02/17 07:47:52;;;;;;;0.10;0.10;;;12.90;90.60;;;;;;5065674;28;20048;-85
2022/02/17 07:50:20;;;;;;;1.20;0.10;;;12.90;90.80;;;;;;5058642;28;20030;-84
2022/02/17 07:52:46;;;;;;;3.78;0.10;;;12.90;90.60;;;;;;5044418;28;20053;-87
2022/02/17 07:55:13;;;;;;;0.32;0.10;;;12.80;90.70;;;;;;5058368;28;20036;-91
2022/02/17 07:57:39;;;;;;;1.98;0.20;;;12.90;90.60;;;;;;5056998;28;20063;-89
2022/02/17 08:00:07;;;;;;;3.58;0.80;;;13.10;90.20;;;;;;5037612;28;20122;-83
2022/02/17 08:02:34;;;;;;;0.10;0.10;;;13.30;88.50;;;;;;5036546;28;20002;-83
2022/02/17 08:04:59;;;;;;;0.65;0.10;;;13.40;90.00;;;;;;5034154;28;20034;-80
2022/02/17 08:07:25;;;;;;;0.00;0.00;;;13.40;91.40;;;;;;5031309;28;20090;-81
2022/02/17 08:09:53;;;;;;;0.30;0.13;;;13.50;91.80;;;;;;5034081;28;20094;-82
2022/02/17 08:12:20;;;;;;;0.32;0.08;;;13.60;92.30;;;;;;5032156;28;20089;-84
2022/02/17 08:14:46;;;;;;;0.10;0.10;;;13.50;87.20;;;;;;5034037;28;20029;-84
2022/02/17 08:17:12;;;;;;;0.10;0.10;;;13.40;88.30;;;;;;5030031;28;20044;-83
2022/02/17 08:19:37;;;;;;;0.38;0.10;;;13.30;88.60;;;;;;5023495;28;20026;-82
2022/02/17 08:22:03;;;;;;;0.98;0.10;;;13.20;90.00;;;;;;5024373;28;20026;-83
2022/02/17 08:24:29;;;;;;;0.47;0.10;;;12.90;91.80;;;;;;5037525;28;20037;-83
2022/02/17 08:26:57;;;;;;;1.00;0.35;;;12.50;93.10;;;;;;5062182;28;20549;-83
2022/02/17 08:29:24;;;;;;;0.10;0.10;;;12.30;94.30;;;;;;5064368;28;20050;-82
2022/02/17 08:31:50;;;;;;;0.22;0.22;;;12.10;95.00;;;;;;5064072;28;20048;-83
2022/02/17 08:34:17;;;;;;;0.10;0.08;;;12.00;95.70;;;;;;5065594;28;20040;-83
2022/02/17 08:36:43;;;;;;;2.83;0.17;;;11.90;96.30;;;;;;5064613;28;20044;-85
2022/02/17 08:39:09;;;;;;;0.17;0.10;;;11.80;96.50;;;;;;5065630;28;20075;-84
2022/02/17 08:41:36;;;;;;;0.40;0.20;;;11.60;97.90;;;;;;5070710;28;20025;-82
2022/02/17 08:44:06;;;;;;;0.20;0.10;;;11.50;98.20;;;;;;5064591;28;20446;-82
2022/02/17 08:46:33;;;;;;;0.50;0.20;;;11.30;99.10;;;;;;5063126;28;20024;-83
2022/02/17 08:48:59;;;;;;;1.33;0.30;;;11.20;99.90;;;;;;5064645;28;20098;-82
2022/02/17 08:51:29;;;;;;;0.77;0.20;;;11.10;99.90;;;;;;5065854;28;20020;-84
2022/02/17 08:53:55;;;;;;;0.85;0.13;;;11.00;99.90;;;;;;5055876;28;20017;-82
2022/02/17 08:56:21;;;;;;;0.57;0.20;;;11.00;99.90;;;;;;5078594;28;20039;-83
2022/02/17 08:58:47;;;;;;;0.15;0.13;;;11.30;99.90;;;;;;5062994;28;20044;-81
2022/02/17 09:01:13;;;;;;;0.20;0.17;;;11.80;98.60;;;;;;5058762;28;20032;-81
2022/02/17 09:03:40;;;;;;;1.92;0.20;;;12.30;97.00;;;;;;5035889;28;20081;-80
2022/02/17 09:06:05;;;;;;;0.93;0.47;;;12.60;95.90;;;;;;5037891;28;20076;-83
2022/02/17 09:08:31;;;;;;;0.50;0.20;;;12.80;95.40;;;;;;5039103;28;20029;-82
2022/02/17 09:11:00;;;;;;;1.08;0.20;;;12.80;94.90;;;;;;5042125;28;20068;-83
2022/02/17 09:13:26;;;;;;;1.80;0.32;;;12.60;96.00;;;;;;5020932;28;20026;-82
2022/02/17 09:15:51;;;;;;;1.25;0.20;;;12.30;98.30;;;;;;5019709;28;20025;-84
2022/02/17 09:18:17;;;;;;;0.20;0.20;;;11.90;99.90;;;;;;5019561;28;20026;-84
2022/02/17 09:20:44;;;;;;;1.00;0.45;;;11.60;99.90;;;;;;5036013;28;20335;-84
2022/02/17 09:23:10;;;;;;;1.92;0.45;;;11.40;99.90;;;;;;5057817;28;20359;-84
2022/02/17 09:25:45;;;;;;;2.03;0.30;;;11.20;99.90;;;;;;5043271;28;20021;-83
2022/02/17 09:28:13;;;;;;;1.10;0.25;;;11.10;99.90;;;;;;5058514;28;20059;-84
2022/02/17 09:30:39;;;;;;;1.02;0.30;;;10.90;99.90;;;;;;5059892;28;20028;-83
2022/02/17 09:33:05;;;;;;;1.08;0.40;;;10.70;99.90;;;;;;5061759;28;20048;-84
2022/02/17 09:35:34;;;;;;;1.17;0.17;;;10.60;99.90;;;;;;5058979;28;20040;-85
2022/02/17 09:38:00;;;;;;;1.45;0.20;;;10.50;99.90;;;;;;5058692;28;20036;-82
2022/02/17 09:40:26;;;;;;;1.95;0.30;;;10.50;99.90;;;;;;5058658;28;20326;-83
2022/02/17 09:42:53;;;;;;;4.57;0.35;;;10.50;99.90;;;;;;5039755;28;20049;-83
2022/02/17 09:45:20;;;;;;;1.15;0.40;;;10.40;99.90;;;;;;5026478;28;20141;-83
2022/02/17 09:47:46;;;;;;;1.38;0.28;;;10.30;99.90;;;;;;5041260;28;20029;-83
2022/02/17 09:50:46;;;;;;;0.73;0.30;;;10.20;99.90;;;;;;5046694;28;20037;-85
2022/02/17 09:54:05;;;;;;;3.70;0.68;;;10.20;99.90;;;;;;5034442;28;20044;-82
2022/02/17 09:56:37;;;;;;;0.65;0.40;;;10.20;99.90;;;;;;5015404;28;20045;-84
2022/02/17 09:59:04;;;;;;;0.25;0.20;;;10.10;99.90;;;;;;5038322;28;20147;-84
2022/02/17 10:01:31;;;;;;;0.20;0.20;;;10.00;99.90;;;;;;5023244;28;20025;-82
2022/02/17 10:04:14;;;;;;;1.30;0.30;;;9.90;99.90;;;;;;5019959;28;20021;-82
2022/02/17 10:06:42;;;;;;;0.95;0.15;;;9.90;99.90;;;;;;5020162;28;20025;-82
2022/02/17 10:09:08;;;;;;;0.63;0.25;;;9.80;99.90;;;;;;5020376;28;20025;-84
2022/02/17 10:11:35;;;;;;;1.23;0.20;;;9.90;99.90;;;;;;5021976;28;20029;-83
2022/02/17 10:14:06;;;;;;;2.03;0.63;;;9.90;99.90;;;;;;5020872;28;20018;-83
2022/02/17 10:16:58;;;;;;;1.33;0.22;;;9.90;99.90;;;;;;5023669;28;20425;-83
2022/02/17 10:19:32;;;;;;;1.85;0.45;;;10.00;99.90;;;;;;5040965;28;20080;-84
2022/02/17 10:22:05;;;;;;;0.60;0.40;;;10.10;99.90;;;;;;5040129;28;20103;-83
2022/02/17 10:24:40;;;;;;;3.85;0.50;;;10.10;99.90;;;;;;5042651;28;20477;-83
2022/02/17 10:27:15;;;;;;;4.15;0.60;;;10.00;99.90;;;;;;5068093;28;20021;-86
2022/02/17 10:30:09;;;;;;;1.10;0.50;;;9.80;99.90;;;;;;5069346;28;20551;-82
2022/02/17 10:32:51;;;;;;;5.85;1.33;;;9.60;99.90;;;;;;5059888;28;20017;-82
2022/02/17 10:35:18;;;;;;;5.00;0.75;;;9.40;99.90;;;;;;5060278;28;20032;-82
2022/02/17 10:37:58;;;;;;;3.28;0.90;;;9.20;99.90;;;;;;5051172;28;20033;-82
2022/02/17 10:40:26;;;;;;;5.78;0.90;;;9.20;99.90;;;;;;5021921;28;20025;-82
2022/02/17 10:43:10;;;;;;;6.85;1.00;;;9.20;99.90;;;;;;5021963;28;20022;-82
2022/02/17 10:45:39;;;;;;;6.55;1.15;;;9.20;99.90;;;;;;5023123;28;20451;-82
2022/02/17 10:48:29;;;;;;;8.02;1.40;;;9.20;99.90;;;;;;5027241;28;20041;-82
2022/02/17 10:51:17;;;;;;;7.25;0.98;;;9.20;99.90;;;;;;5022294;28;20030;-82
2022/02/17 10:53:58;;;;;;;5.60;1.27;;;9.20;99.90;;;;;;5032442;28;20074;-82
2022/02/17 10:56:24;;;;;;;8.40;1.50;;;9.20;99.90;;;;;;5061218;28;20454;-82
2022/02/17 10:58:51;;;;;;;5.55;1.35;;;9.20;99.90;;;;;;5037227;28;20472;-82
2022/02/17 11:01:19;;;;;;;3.35;1.23;;;9.20;99.90;;;;;;5022457;28;20056;-83
2022/02/17 11:03:47;;;;;;;6.65;1.27;;;9.30;99.90;;;;;;5030512;28;20056;-82
2022/02/17 11:06:15;;;;;;;7.30;1.27;;;9.20;99.90;;;;;;5024492;28;20022;-82
2022/02/17 11:08:43;;;;;;;5.93;1.10;;;9.20;99.90;;;;;;5036484;28;20044;-83
2022/02/17 11:11:10;;;;;;;4.60;1.40;;;9.20;99.90;;;;;;5057496;28;20233;-82
2022/02/17 11:13:36;;;;;;;9.23;1.27;;;9.20;99.90;;;;;;5047224;28;20059;-83
2022/02/17 11:16:04;;;;;;;5.13;1.13;;;9.40;99.90;;;;;;5045978;28;20025;-83
2022/02/17 11:18:31;;;;;;;6.22;1.10;;;9.60;99.90;;;;;;5040957;28;20415;-82
2022/02/17 11:20:58;;;;;;;7.68;0.93;;;9.80;99.90;;;;;;5025464;28;20517;-83
2022/02/17 11:23:32;;;;;;;4.78;1.00;;;9.90;99.90;;;;;;5032987;28;20034;-83
2022/02/17 11:25:59;;;;;;;3.15;0.93;;;10.00;99.90;;;;;;5036666;28;20053;-84
2022/02/17 11:28:32;;;;;;;5.03;1.30;;;10.00;99.90;;;;;;5034450;28;20026;-83
2022/02/17 11:31:03;;;;;;;4.15;1.38;;;10.00;99.90;;;;;;5025610;28;20027;-83
2022/02/17 11:33:33;;;;;;;4.78;1.05;;;10.00;99.90;;;;;;5032750;28;20021;-83
2022/02/17 11:36:08;;;;;;;6.28;1.60;;;10.20;99.90;;;;;;5028116;28;20072;-83
2022/02/17 11:38:38;;;;;;;6.43;1.30;;;10.30;99.90;;;;;;5025447;28;20029;-83
2022/02/17 11:41:16;;;;;;;4.75;0.80;;;10.30;99.90;;;;;;5026116;28;20462;-83
2022/02/17 11:43:52;;;;;;;3.30;0.98;;;10.50;99.90;;;;;;5042877;28;20018;-82
2022/02/17 11:46:40;;;;;;;4.70;1.10;;;10.60;99.90;;;;;;5043639;28;20029;-83
2022/02/17 11:49:29;;;;;;;4.57;1.10;;;10.70;99.90;;;;;;5028063;28;20093;-82
2022/02/17 11:52:16;;;;;;;8.57;1.73;;;10.90;99.90;;;;;;5026974;28;20037;-82
2022/02/17 11:55:03;;;;;;;11.02;1.58;;;11.10;99.90;;;;;;5039122;28;20021;-81
2022/02/17 11:57:36;;;;;;;6.70;1.77;;;11.10;99.90;;;;;;5042322;28;20025;-83
2022/02/17 12:00:23;;;;;;;10.75;1.35;;;11.20;99.90;;;;;;5039977;28;20094;-83
2022/02/17 12:02:50;;;;;;;5.97;1.30;;;11.40;99.90;;;;;;5036787;28;20128;-81
2022/02/17 12:05:18;;;;;;;10.80;1.70;;;11.50;99.90;;;;;;5073394;28;20348;-82
2022/02/17 12:07:44;;;;;;;7.53;1.45;;;11.50;99.90;;;;;;5072207;28;20032;-82
2022/02/17 12:10:31;;;;;;;7.57;1.50;;;11.50;99.90;;;;;;5031495;28;20026;-82
2022/02/17 12:12:57;;;;;;;11.68;2.05;;;11.60;99.90;;;;;;5034767;28;20030;-83
2022/02/17 12:15:22;;;;;;;7.03;1.50;;;11.50;99.90;;;;;;5058096;28;20029;-83
2022/02/17 12:17:49;;;;;;;4.32;1.42;;;11.40;99.90;;;;;;5037869;28;20025;-84
2022/02/17 12:20:18;;;;;;;10.52;2.33;;;11.50;99.90;;;;;;5034480;28;20025;-83
2022/02/17 12:23:06;;;;;;;10.60;1.55;;;11.60;99.90;;;;;;5072213;28;20111;-84
2022/02/17 12:25:40;;;;;;;7.68;1.40;;;11.80;99.90;;;;;;5071398;28;20362;-84
2022/02/17 12:28:17;;;;;;;7.50;1.42;;;11.80;99.90;;;;;;5037972;28;20026;-84
2022/02/17 12:30:49;;;;;;;5.68;1.60;;;11.80;99.90;;;;;;5021617;28;20075;-82
2022/02/17 12:33:24;;;;;;;9.43;1.85;;;11.90;99.90;;;;;;5021540;28;20394;-83
2022/02/17 12:36:00;;;;;;;7.45;1.67;;;12.00;99.90;;;;;;5019795;28;20371;-81
2022/02/17 12:38:35;;;;;;;7.90;1.58;;;11.90;99.10;;;;;;5020468;28;20105;-81
2022/02/17 12:41:06;;;;;;;9.07;1.95;;;11.80;99.70;;;;;;5020562;28;20022;-83
2022/02/17 12:43:40;;;;;;;7.88;2.10;;;11.80;99.90;;;;;;5020398;28;20032;-84
2022/02/17 12:46:09;;;;;;;13.45;1.98;;;11.80;98.20;;;;;;5021317;28;20399;-81
2022/02/17 12:48:38;;;;;;;9.57;2.10;;;11.70;95.70;;;;;;5021614;28;20048;-82
2022/02/17 12:51:04;;;;;;;11.93;2.45;;;11.70;94.40;;;;;;5022187;28;20505;-84
2022/02/17 12:53:56;;;;;;;9.82;1.77;;;11.70;92.90;;;;;;5027313;28;20083;-84
2022/02/17 12:56:26;;;;;;;9.40;2.00;;;11.80;90.60;;;;;;5051092;28;20088;-83
2022/02/17 12:58:53;;;;;;;11.75;1.88;;;12.00;88.20;;;;;;5028097;28;20028;-83